Portada
METAR-TAF:

METAR-TAF

Aeropuertos :

Aeropuerto Internacional de Kunming-Changshui

Kunming, China

latitud: 25-01N, longitud: 102-41E, altitud: 1892 m

Observación

El informe se hizo hace 1 hora y 8 minutos, a las 12:00 UTC
Viento 16 kt del suroeste
Temperatura 12°C
Humedad 40%
Presión 1020 hPa
Visibilidad 10 km o más
sin nubes por debajo de 1500 m y sin presencia de cumulonimbus.

METAR: ZPPP 201200Z 22008MPS CAVOK 12/M01 Q1020 NOSIG

Hora: 21:08 (13:08 UTC)

Pronóstico

El informe se hizo hace 5 horas y 55 minutos, a las 07:13 UTC
Pronóstico válido del 20 a las 12 UTC al 21 a las 12 UTC
Viento 12 kt del suroeste
Visibilidad 10 km o más
Nubes dispersas a una altura de 2600 ft
Evolucionando progresivamente
del 21 a las 03 UTC al 21 a las 04 UTC
Viento 23 kt del suroeste con ráfagas de 39 kt

TAF: ZPPP 200713Z 2012/2112 23006MPS 9999 SCT026 TX19/2108Z TN04/2023Z BECMG 2103/2104 23012G20MPS

Observaciones y pronósticos meteorológicos de más de 4000 aeropuertos (mensajes METAR y TAF).

Los puntos amarillos y rojos representan las estaciones disponibles.

Ponga el ratón en el punto deseado para ver el nombre de la estación.

Haga clic para ver las observaciones y los pronósticos meteorológicos.

Para cambiar el mapa : haga clic en los botones verdes con una cruz de color negro para hacer un zoom, en el botón verde con un guión para alejar o en las flechas verdes para mapas adyacentes.


METAR-TAF: